Time;durP1;ratioP1;P1;durP2;ratioP2;P2;SDS_P1;SDS_P2;PMS_P1;PMS_P2;Temp;Humidity;BMP_temperature;BMP_pressure;BME280_temperature;BME280_humidity;BME280_pressure;Samples;Min_cycle;Max_cycle;Signal;HPM_P1;HPM_P2
2024/01/15 00:01:30;;;;;;;14.60;8.95;;;2.20;94.00;;;;;;5029525;28;20021;-77
2024/01/15 00:03:55;;;;;;;13.68;8.38;;;2.20;94.10;;;;;;5028852;28;20053;-79
2024/01/15 00:06:21;;;;;;;11.73;8.10;;;2.30;94.20;;;;;;5029952;28;20021;-78
2024/01/15 00:08:47;;;;;;;11.43;8.10;;;2.20;94.30;;;;;;5026075;28;20041;-78
2024/01/15 00:11:12;;;;;;;12.80;7.47;;;2.20;94.30;;;;;;5036272;28;20026;-78
2024/01/15 00:13:38;;;;;;;14.20;9.40;;;2.20;94.40;;;;;;5030187;28;20120;-78
2024/01/15 00:16:06;;;;;;;12.27;8.27;;;2.20;94.30;;;;;;5027135;28;20085;-78
2024/01/15 00:18:32;;;;;;;16.17;9.25;;;2.20;94.30;;;;;;5029777;28;20644;-78
2024/01/15 00:20:58;;;;;;;13.25;8.77;;;2.30;94.20;;;;;;5039788;28;20625;-78
2024/01/15 00:23:23;;;;;;;12.07;8.27;;;2.30;94.20;;;;;;5029408;28;20117;-78
2024/01/15 00:25:51;;;;;;;11.73;7.30;;;2.30;94.20;;;;;;5034961;28;20025;-78
2024/01/15 00:28:17;;;;;;;12.98;8.48;;;2.30;94.10;;;;;;5027771;28;20285;-78
2024/01/15 00:30:42;;;;;;;12.93;8.30;;;2.30;94.20;;;;;;5031937;28;20018;-78
2024/01/15 00:33:08;;;;;;;13.30;7.70;;;2.30;94.10;;;;;;5029410;28;20045;-78
2024/01/15 00:35:34;;;;;;;10.20;6.70;;;2.40;94.10;;;;;;5033803;28;20017;-78
2024/01/15 00:37:59;;;;;;;11.93;7.22;;;2.40;94.10;;;;;;5036080;28;20458;-77
2024/01/15 00:40:25;;;;;;;12.40;7.65;;;2.40;94.10;;;;;;5042079;28;20024;-77
2024/01/15 00:42:51;;;;;;;10.80;7.13;;;2.30;94.00;;;;;;5034284;28;20040;-80
2024/01/15 00:45:16;;;;;;;12.25;6.80;;;2.30;94.00;;;;;;5031943;28;20041;-79
2024/01/15 00:47:42;;;;;;;10.63;7.22;;;2.30;94.00;;;;;;5024073;28;20098;-79
2024/01/15 00:50:08;;;;;;;11.00;6.57;;;2.30;94.00;;;;;;5033360;28;20454;-79
2024/01/15 00:52:34;;;;;;;9.88;6.75;;;2.40;94.00;;;;;;5035364;28;20585;-77
2024/01/15 00:54:59;;;;;;;10.30;6.50;;;2.40;94.10;;;;;;5038785;28;20046;-77
2024/01/15 00:57:25;;;;;;;10.63;6.78;;;2.40;94.00;;;;;;5021997;28;20025;-78
2024/01/15 00:59:51;;;;;;;12.40;6.93;;;2.40;94.00;;;;;;5028512;28;20025;-77
2024/01/15 01:02:17;;;;;;;12.50;6.18;;;2.40;94.00;;;;;;5031562;28;20059;-78
2024/01/15 01:04:42;;;;;;;12.82;6.78;;;2.40;94.00;;;;;;5030091;28;20021;-78
2024/01/15 01:07:08;;;;;;;12.30;6.55;;;2.40;94.00;;;;;;5027645;28;20017;-78
2024/01/15 01:09:34;;;;;;;12.80;6.50;;;2.40;94.00;;;;;;5035801;28;20025;-77
2024/01/15 01:11:59;;;;;;;12.77;7.68;;;2.50;93.90;;;;;;5029353;28;20185;-78
2024/01/15 01:14:25;;;;;;;15.50;8.10;;;2.50;93.80;;;;;;5033324;28;20033;-79
2024/01/15 01:16:50;;;;;;;12.55;6.40;;;2.50;93.60;;;;;;5031277;28;20610;-79
2024/01/15 01:19:16;;;;;;;11.15;6.53;;;2.50;93.40;;;;;;5030327;28;20303;-79
2024/01/15 01:21:42;;;;;;;11.52;6.00;;;2.60;93.40;;;;;;5031569;28;20047;-78
2024/01/15 01:24:07;;;;;;;13.10;6.43;;;2.60;93.40;;;;;;5031575;28;20029;-79
2024/01/15 01:26:33;;;;;;;11.63;6.60;;;2.50;93.30;;;;;;5030736;28;20457;-79
2024/01/15 01:28:59;;;;;;;12.20;6.00;;;2.60;93.30;;;;;;5035452;28;20031;-78
2024/01/15 01:31:24;;;;;;;11.40;5.63;;;2.60;93.20;;;;;;5036904;28;20108;-78
2024/01/15 01:33:50;;;;;;;9.68;5.55;;;2.60;93.10;;;;;;5031651;28;20398;-80
2024/01/15 01:36:16;;;;;;;10.48;5.80;;;2.60;93.00;;;;;;5033119;28;20467;-79
2024/01/15 01:38:41;;;;;;;12.00;6.47;;;2.60;92.80;;;;;;5040008;28;20135;-79
2024/01/15 01:41:07;;;;;;;12.77;6.05;;;2.70;92.70;;;;;;5052157;28;20463;-79
2024/01/15 01:43:33;;;;;;;12.82;6.10;;;2.70;92.70;;;;;;5050834;28;20079;-79
2024/01/15 01:46:00;;;;;;;10.35;6.53;;;2.70;92.50;;;;;;5036302;28;20433;-79
2024/01/15 01:48:26;;;;;;;9.63;5.80;;;2.70;92.50;;;;;;5036923;28;20762;-78
2024/01/15 01:50:58;;;;;;;10.23;5.10;;;2.80;92.40;;;;;;5043092;28;20028;-79
2024/01/15 01:53:26;;;;;;;13.57;5.93;;;2.80;92.40;;;;;;5032854;28;20163;-78
2024/01/15 01:55:53;;;;;;;10.02;4.38;;;2.80;92.30;;;;;;5037291;28;20020;-78
2024/01/15 01:58:19;;;;;;;9.38;4.55;;;2.80;92.20;;;;;;5029730;28;20037;-79
2024/01/15 02:00:46;;;;;;;7.95;4.30;;;2.80;92.10;;;;;;5037404;28;20067;-78
2024/01/15 02:03:12;;;;;;;8.80;4.10;;;2.90;91.80;;;;;;5034897;28;20040;-78
2024/01/15 02:05:40;;;;;;;8.85;3.88;;;2.90;91.80;;;;;;5029867;28;20485;-78
2024/01/15 02:08:06;;;;;;;9.45;3.60;;;2.90;91.70;;;;;;5028068;28;20033;-79
2024/01/15 02:10:32;;;;;;;8.43;3.55;;;2.90;91.60;;;;;;5028535;28;20032;-78
2024/01/15 02:12:57;;;;;;;8.55;3.58;;;2.90;91.50;;;;;;5030450;28;20033;-78
2024/01/15 02:15:23;;;;;;;7.65;3.40;;;2.90;91.50;;;;;;5021742;28;20104;-79
2024/01/15 02:18:07;;;;;;;5.88;3.33;;;2.90;91.40;;;;;;5022566;28;20100;-78
2024/01/15 02:20:33;;;;;;;11.80;3.80;;;3.00;91.40;;;;;;5044249;28;20354;-79
2024/01/15 02:23:15;;;;;;;7.43;3.80;;;2.90;91.30;;;;;;5045184;28;20043;-78
2024/01/15 02:25:44;;;;;;;8.25;5.65;;;2.90;91.30;;;;;;5055996;28;20028;-79
2024/01/15 02:28:12;;;;;;;10.30;7.22;;;3.00;91.30;;;;;;5031812;28;20038;-78
2024/01/15 02:30:39;;;;;;;11.63;5.78;;;3.00;91.30;;;;;;5032454;28;20017;-79
2024/01/15 02:33:05;;;;;;;11.85;5.97;;;3.00;91.20;;;;;;5028354;28;20050;-78
2024/01/15 02:35:31;;;;;;;14.27;5.85;;;3.00;91.20;;;;;;5031178;28;20067;-77
2024/01/15 02:37:57;;;;;;;12.60;5.53;;;3.00;91.20;;;;;;5034154;28;20420;-78
2024/01/15 02:40:23;;;;;;;15.32;5.82;;;3.10;91.30;;;;;;5034510;28;20055;-78
2024/01/15 02:42:48;;;;;;;12.25;5.55;;;3.00;91.30;;;;;;5028547;28;20068;-78
2024/01/15 02:45:14;;;;;;;10.93;6.15;;;3.10;91.40;;;;;;5036083;28;20281;-78
2024/01/15 02:47:40;;;;;;;14.05;6.03;;;3.10;91.50;;;;;;5027849;28;20030;-78
2024/01/15 02:50:06;;;;;;;10.88;6.68;;;3.10;91.50;;;;;;5037307;28;20134;-78
2024/01/15 02:52:32;;;;;;;13.65;6.63;;;3.10;91.50;;;;;;5032470;28;20120;-79
2024/01/15 02:54:57;;;;;;;11.63;5.68;;;3.10;91.60;;;;;;5034129;28;20113;-78
2024/01/15 02:57:23;;;;;;;13.45;5.43;;;3.10;91.70;;;;;;5031390;28;20103;-77
2024/01/15 02:59:49;;;;;;;12.43;5.40;;;3.10;92.00;;;;;;5031009;28;20057;-78
2024/01/15 03:02:14;;;;;;;10.80;4.57;;;3.00;92.10;;;;;;5033065;28;20048;-78
2024/01/15 03:04:44;;;;;;;13.82;4.45;;;3.00;92.20;;;;;;5036244;28;20259;-78
2024/01/15 03:07:10;;;;;;;11.13;5.43;;;3.00;92.40;;;;;;5037436;28;20087;-78
2024/01/15 03:09:35;;;;;;;11.25;4.57;;;3.00;92.50;;;;;;5031325;28;20049;-79
2024/01/15 03:12:01;;;;;;;11.45;4.72;;;3.00;92.60;;;;;;5029481;28;20025;-79
2024/01/15 03:14:27;;;;;;;11.93;5.00;;;3.00;92.70;;;;;;5027529;28;20133;-77
2024/01/15 03:16:53;;;;;;;13.45;5.05;;;3.00;92.70;;;;;;5036075;28;20036;-78
2024/01/15 03:19:19;;;;;;;15.32;5.03;;;3.00;92.60;;;;;;5029748;28;20104;-78
2024/01/15 03:21:44;;;;;;;10.30;4.38;;;2.90;92.70;;;;;;5033642;28;20037;-79
2024/01/15 03:24:10;;;;;;;12.30;4.85;;;2.90;92.80;;;;;;5031747;28;20029;-79
2024/01/15 03:26:35;;;;;;;9.07;4.90;;;2.90;92.90;;;;;;5028628;28;20390;-79
2024/01/15 03:29:01;;;;;;;10.88;4.60;;;2.90;93.00;;;;;;5026163;28;20040;-78
2024/01/15 03:31:27;;;;;;;9.52;5.18;;;2.90;93.10;;;;;;5029238;28;20477;-77
2024/01/15 03:33:52;;;;;;;12.50;4.65;;;2.90;93.10;;;;;;5033949;28;20049;-78
2024/01/15 03:36:18;;;;;;;12.90;5.50;;;2.90;93.10;;;;;;5035714;28;20115;-78
2024/01/15 03:38:44;;;;;;;12.25;5.47;;;2.90;93.00;;;;;;5030301;28;20037;-77
2024/01/15 03:41:09;;;;;;;15.80;5.13;;;2.90;93.00;;;;;;5034411;28;20025;-79
2024/01/15 03:43:35;;;;;;;12.32;4.90;;;2.90;93.00;;;;;;5035920;28;20862;-79
2024/01/15 03:46:01;;;;;;;13.25;4.50;;;2.90;93.00;;;;;;5026937;28;20030;-78
2024/01/15 03:48:27;;;;;;;9.48;3.83;;;2.90;93.00;;;;;;5027673;28;20041;-79
2024/01/15 03:50:53;;;;;;;11.85;4.50;;;2.90;92.90;;;;;;5029121;28;20026;-78
2024/01/15 03:53:18;;;;;;;12.70;4.28;;;2.90;92.80;;;;;;5030395;28;20546;-78
2024/01/15 03:55:44;;;;;;;9.07;3.78;;;2.90;92.80;;;;;;5032977;28;20043;-79
2024/01/15 03:58:10;;;;;;;12.30;3.72;;;3.00;92.80;;;;;;5028023;28;20041;-78
2024/01/15 04:00:35;;;;;;;10.20;3.70;;;2.90;92.70;;;;;;5031255;28;20835;-78
2024/01/15 04:03:01;;;;;;;12.75;4.22;;;2.80;92.80;;;;;;5029722;28;20116;-77
2024/01/15 04:05:27;;;;;;;9.77;4.20;;;2.80;92.90;;;;;;5034793;28;20017;-77
2024/01/15 04:07:52;;;;;;;13.52;3.70;;;2.80;92.90;;;;;;5027201;28;20041;-77
2024/01/15 04:10:18;;;;;;;7.07;2.70;;;2.80;93.00;;;;;;5030147;28;20104;-78
2024/01/15 04:12:46;;;;;;;7.57;3.05;;;2.80;93.00;;;;;;5025438;28;20026;-78
2024/01/15 04:15:12;;;;;;;10.68;3.25;;;2.70;93.10;;;;;;5025083;28;20106;-78
2024/01/15 04:17:38;;;;;;;7.75;3.00;;;2.70;93.20;;;;;;5035252;28;20076;-78
2024/01/15 04:20:04;;;;;;;7.47;3.50;;;2.70;93.30;;;;;;5025234;28;20116;-78
2024/01/15 04:22:30;;;;;;;9.63;3.45;;;2.70;93.30;;;;;;5033057;28;20100;-78
2024/01/15 04:24:56;;;;;;;7.80;3.15;;;2.60;93.40;;;;;;5023763;28;20033;-78
2024/01/15 04:27:21;;;;;;;7.22;2.92;;;2.60;93.40;;;;;;5034040;28;20020;-78
2024/01/15 04:29:47;;;;;;;7.65;3.65;;;2.70;93.30;;;;;;5031111;28;20033;-78
2024/01/15 04:32:13;;;;;;;6.63;3.15;;;2.60;93.20;;;;;;5031172;28;20035;-78
2024/01/15 04:34:38;;;;;;;9.48;3.40;;;2.60;93.00;;;;;;5031869;28;20094;-78
2024/01/15 04:37:04;;;;;;;9.30;3.88;;;2.60;92.80;;;;;;5033305;28;20351;-78
2024/01/15 04:39:29;;;;;;;9.20;3.10;;;2.60;92.70;;;;;;5028517;28;20659;-78
2024/01/15 04:41:55;;;;;;;6.20;2.85;;;2.60;92.60;;;;;;5033809;28;20034;-78
2024/01/15 04:44:21;;;;;;;10.68;3.25;;;2.60;92.50;;;;;;5027147;28;20136;-77
2024/01/15 04:46:46;;;;;;;7.32;3.42;;;2.60;92.40;;;;;;5040479;28;20036;-78
2024/01/15 04:49:12;;;;;;;5.55;3.20;;;2.60;92.50;;;;;;5035193;28;20438;-78
2024/01/15 04:51:37;;;;;;;7.63;3.20;;;2.60;92.40;;;;;;5030834;28;20016;-79
2024/01/15 04:54:04;;;;;;;9.23;3.42;;;2.60;92.20;;;;;;5032406;28;20525;-76
2024/01/15 04:56:29;;;;;;;7.85;2.83;;;2.60;92.30;;;;;;5028794;28;20017;-78
2024/01/15 04:58:55;;;;;;;7.32;2.65;;;2.60;92.40;;;;;;5029299;28;20133;-79
2024/01/15 05:01:21;;;;;;;7.05;2.90;;;2.60;92.40;;;;;;5021920;28;20043;-78
2024/01/15 05:03:46;;;;;;;8.75;2.83;;;2.50;93.00;;;;;;5026246;28;20041;-77
2024/01/15 05:06:12;;;;;;;8.48;2.60;;;2.40;93.40;;;;;;5030835;28;20034;-78
2024/01/15 05:08:38;;;;;;;8.07;2.47;;;2.30;93.30;;;;;;5032149;28;20042;-78
2024/01/15 05:11:03;;;;;;;7.72;2.47;;;2.30;93.00;;;;;;5030089;28;20029;-79
2024/01/15 05:13:29;;;;;;;7.05;1.85;;;2.30;92.60;;;;;;5030014;28;20175;-78
2024/01/15 05:15:55;;;;;;;7.95;2.60;;;2.30;92.00;;;;;;5028637;28;20032;-78
2024/01/15 05:18:20;;;;;;;10.73;4.00;;;2.40;91.90;;;;;;5031951;28;20284;-79
2024/01/15 05:20:46;;;;;;;7.97;2.67;;;2.40;92.00;;;;;;5034921;28;20561;-77
2024/01/15 05:23:11;;;;;;;9.57;2.72;;;2.50;91.80;;;;;;5028616;28;20033;-78
2024/01/15 05:25:37;;;;;;;6.80;2.70;;;2.50;91.90;;;;;;5034262;28;20028;-78
2024/01/15 05:28:03;;;;;;;7.95;2.70;;;2.60;91.80;;;;;;5029741;28;20379;-79
2024/01/15 05:30:28;;;;;;;8.20;2.63;;;2.50;91.80;;;;;;5029332;28;20116;-79
2024/01/15 05:32:54;;;;;;;5.85;2.88;;;2.60;91.90;;;;;;5034153;28;20632;-78
2024/01/15 05:35:20;;;;;;;7.43;2.78;;;2.60;91.80;;;;;;5031942;28;20072;-77
2024/01/15 05:37:46;;;;;;;8.38;3.05;;;2.60;91.90;;;;;;5031673;28;20410;-78
2024/01/15 05:40:12;;;;;;;11.88;3.38;;;2.60;91.90;;;;;;5031762;28;20029;-78
2024/01/15 05:42:39;;;;;;;9.23;3.35;;;2.50;92.00;;;;;;5036571;28;20038;-79
2024/01/15 05:45:05;;;;;;;9.38;3.35;;;2.50;92.00;;;;;;5031259;28;20059;-79
2024/01/15 05:47:31;;;;;;;11.55;3.53;;;2.50;91.90;;;;;;5035652;28;20776;-78
2024/01/15 05:49:58;;;;;;;12.25;3.88;;;2.50;91.90;;;;;;5031702;28;20028;-78
2024/01/15 05:52:23;;;;;;;9.52;3.30;;;2.50;92.00;;;;;;5046542;28;20199;-78
2024/01/15 05:54:50;;;;;;;12.25;4.10;;;2.40;91.90;;;;;;5030554;28;20425;-78
2024/01/15 05:57:15;;;;;;;11.75;3.80;;;2.40;92.00;;;;;;5036933;28;20070;-78
2024/01/15 05:59:42;;;;;;;9.73;3.38;;;2.40;92.00;;;;;;5033558;28;20029;-77
2024/01/15 06:02:08;;;;;;;12.23;4.10;;;2.30;92.10;;;;;;5033560;28;20480;-78
2024/01/15 06:04:34;;;;;;;10.85;3.47;;;2.30;92.10;;;;;;5029221;28;20036;-77
2024/01/15 06:06:59;;;;;;;10.50;3.30;;;2.20;92.10;;;;;;5033015;28;20071;-77
2024/01/15 06:09:25;;;;;;;8.68;3.00;;;2.20;92.00;;;;;;5031636;28;20037;-78
2024/01/15 06:11:51;;;;;;;14.95;4.10;;;2.20;91.80;;;;;;5037174;28;20450;-79
2024/01/15 06:14:16;;;;;;;11.75;3.88;;;2.10;91.70;;;;;;5033544;28;20557;-77
2024/01/15 06:16:42;;;;;;;13.82;3.65;;;2.10;91.60;;;;;;5032221;28;20020;-78
2024/01/15 06:19:07;;;;;;;10.50;2.83;;;2.10;91.30;;;;;;5028674;28;20036;-78
2024/01/15 06:21:33;;;;;;;11.45;3.00;;;2.10;91.20;;;;;;5035133;28;20021;-77
2024/01/15 06:23:59;;;;;;;11.38;3.75;;;2.10;91.10;;;;;;5052971;28;20022;-77
2024/01/15 06:26:24;;;;;;;10.75;3.38;;;2.10;91.00;;;;;;5035423;28;20029;-77
2024/01/15 06:28:50;;;;;;;11.70;3.55;;;2.00;90.90;;;;;;5025047;28;20043;-79
2024/01/15 06:31:16;;;;;;;12.10;3.80;;;2.10;90.90;;;;;;5029633;28;20532;-77
2024/01/15 06:33:42;;;;;;;8.25;3.10;;;2.10;90.90;;;;;;5027159;28;20053;-77
2024/01/15 06:36:08;;;;;;;10.70;3.00;;;2.00;90.80;;;;;;5027944;28;20477;-78
2024/01/15 06:38:34;;;;;;;12.30;3.60;;;2.00;90.60;;;;;;5023110;28;20604;-77
2024/01/15 06:41:00;;;;;;;11.25;3.00;;;2.00;90.50;;;;;;5033502;28;20037;-77
2024/01/15 06:43:25;;;;;;;9.70;2.72;;;2.00;90.10;;;;;;5033877;28;20391;-77
2024/01/15 06:45:51;;;;;;;16.15;3.17;;;2.00;89.80;;;;;;5031728;28;20357;-77
2024/01/15 06:48:17;;;;;;;12.25;3.28;;;2.00;89.60;;;;;;5035269;28;20041;-76
2024/01/15 06:50:43;;;;;;;12.55;2.75;;;2.10;89.30;;;;;;5035487;28;20372;-76
2024/01/15 06:53:08;;;;;;;9.73;3.00;;;2.10;89.10;;;;;;5035768;28;20033;-77
2024/01/15 06:55:34;;;;;;;10.45;2.75;;;2.00;88.90;;;;;;5033906;28;20025;-78
2024/01/15 06:57:59;;;;;;;12.40;2.53;;;2.10;88.80;;;;;;5033676;28;20429;-77
2024/01/15 07:00:27;;;;;;;10.80;2.65;;;2.00;88.70;;;;;;5035126;28;20033;-77
2024/01/15 07:02:53;;;;;;;8.82;2.92;;;2.00;88.40;;;;;;5036830;28;20033;-77
2024/01/15 07:05:20;;;;;;;11.80;2.92;;;2.00;88.30;;;;;;5030996;28;20029;-76
2024/01/15 07:07:45;;;;;;;9.65;2.88;;;2.00;88.10;;;;;;5033159;28;20479;-78
2024/01/15 07:10:11;;;;;;;11.10;3.65;;;1.90;88.00;;;;;;5038909;28;20033;-78
2024/01/15 07:12:36;;;;;;;9.63;2.97;;;1.90;87.90;;;;;;5029998;28;20448;-78
2024/01/15 07:15:03;;;;;;;6.35;2.60;;;1.90;87.70;;;;;;5029284;28;20025;-73
2024/01/15 07:17:30;;;;;;;8.45;2.70;;;1.90;87.60;;;;;;5032063;28;20070;-73
2024/01/15 07:19:56;;;;;;;8.82;2.92;;;1.90;87.50;;;;;;5023169;28;20026;-73
2024/01/15 07:22:22;;;;;;;9.20;2.63;;;1.90;87.40;;;;;;5026986;28;20446;-73
2024/01/15 07:24:47;;;;;;;10.82;2.95;;;1.90;87.40;;;;;;5024276;28;20458;-73
2024/01/15 07:27:13;;;;;;;8.73;2.88;;;1.90;87.40;;;;;;5037970;28;20056;-73
2024/01/15 07:29:38;;;;;;;10.57;3.90;;;1.90;87.30;;;;;;5039543;28;20039;-73
2024/01/15 07:32:04;;;;;;;7.53;2.90;;;1.90;87.20;;;;;;5030722;28;20458;-73
2024/01/15 07:34:30;;;;;;;11.65;4.43;;;1.80;87.10;;;;;;5025583;28;20306;-73
2024/01/15 07:36:57;;;;;;;14.50;3.92;;;1.80;87.30;;;;;;5027365;28;20029;-72
2024/01/15 07:39:24;;;;;;;7.47;2.97;;;1.80;87.20;;;;;;5029550;28;20533;-74
2024/01/15 07:41:50;;;;;;;11.73;3.72;;;1.80;87.10;;;;;;5027686;28;20025;-72
2024/01/15 07:44:16;;;;;;;7.10;3.22;;;1.80;87.20;;;;;;5024535;28;20098;-73
2024/01/15 07:46:46;;;;;;;8.95;2.78;;;1.80;87.00;;;;;;5023978;28;20476;-75
2024/01/15 07:49:12;;;;;;;14.15;3.58;;;1.80;87.00;;;;;;5039255;28;20424;-73
2024/01/15 07:51:40;;;;;;;8.80;2.50;;;1.80;87.10;;;;;;5036957;28;20074;-73
2024/01/15 07:54:06;;;;;;;8.68;3.08;;;1.80;87.10;;;;;;5033231;28;20074;-73
2024/01/15 07:56:32;;;;;;;7.40;2.88;;;1.90;87.10;;;;;;5033270;28;20073;-74
2024/01/15 07:58:58;;;;;;;12.52;3.05;;;1.90;87.10;;;;;;5027106;28;20041;-74
2024/01/15 08:01:23;;;;;;;10.45;2.90;;;1.90;87.00;;;;;;5031559;28;20025;-74
2024/01/15 08:03:49;;;;;;;11.60;3.05;;;1.90;87.10;;;;;;5031207;28;20517;-73
2024/01/15 08:06:15;;;;;;;9.20;2.78;;;1.90;87.00;;;;;;5028028;28;20458;-74
2024/01/15 08:08:41;;;;;;;7.90;2.72;;;1.90;87.00;;;;;;5047780;28;20040;-72
2024/01/15 08:11:07;;;;;;;10.35;3.15;;;1.90;87.10;;;;;;5023465;28;21171;-73
2024/01/15 08:13:33;;;;;;;9.82;2.88;;;1.90;87.20;;;;;;5035727;28;20037;-74
2024/01/15 08:16:01;;;;;;;9.75;3.40;;;1.90;87.30;;;;;;5035100;28;20071;-72
2024/01/15 08:18:26;;;;;;;11.90;3.75;;;1.90;87.30;;;;;;5027845;28;20049;-73
2024/01/15 08:20:53;;;;;;;11.95;3.40;;;1.90;87.30;;;;;;5044568;28;20033;-74
2024/01/15 08:23:20;;;;;;;16.40;4.15;;;1.90;87.30;;;;;;5040277;28;20065;-73
2024/01/15 08:25:45;;;;;;;11.80;3.92;;;1.80;87.30;;;;;;5031837;28;20028;-72
2024/01/15 08:28:11;;;;;;;10.35;3.60;;;1.90;87.40;;;;;;5028812;28;20036;-72
2024/01/15 08:30:37;;;;;;;10.95;2.60;;;1.90;87.40;;;;;;5032194;28;20056;-73
2024/01/15 08:33:03;;;;;;;17.33;3.60;;;1.90;87.40;;;;;;5028792;28;20136;-73
2024/01/15 08:35:29;;;;;;;11.80;3.00;;;1.90;87.30;;;;;;5030325;28;20526;-73
2024/01/15 08:37:55;;;;;;;10.30;3.88;;;1.90;87.20;;;;;;5031546;28;20038;-73
2024/01/15 08:40:21;;;;;;;12.25;3.30;;;1.90;87.10;;;;;;5019498;28;20317;-73
2024/01/15 08:42:46;;;;;;;10.70;3.63;;;1.90;86.90;;;;;;5028787;28;20053;-73
2024/01/15 08:45:12;;;;;;;16.45;5.07;;;2.00;86.60;;;;;;5025398;28;20021;-73
2024/01/15 08:47:38;;;;;;;14.07;4.07;;;2.10;86.30;;;;;;5027921;28;20099;-73
2024/01/15 08:50:05;;;;;;;10.70;3.78;;;2.10;86.10;;;;;;5026417;28;20032;-73
2024/01/15 08:52:30;;;;;;;13.15;3.60;;;2.20;85.90;;;;;;5024340;28;20733;-73
2024/01/15 08:54:57;;;;;;;14.07;3.17;;;2.20;85.70;;;;;;5026843;28;20045;-73
2024/01/15 08:57:23;;;;;;;13.35;3.80;;;2.30;85.50;;;;;;5031787;28;20524;-73
2024/01/15 08:59:49;;;;;;;10.57;3.58;;;2.40;85.30;;;;;;5020015;28;20021;-73
2024/01/15 09:02:14;;;;;;;11.13;3.33;;;2.50;84.90;;;;;;5032066;28;20031;-73
2024/01/15 09:04:41;;;;;;;9.73;3.00;;;2.60;84.60;;;;;;5025201;28;20432;-72
2024/01/15 09:07:10;;;;;;;9.70;3.53;;;2.70;84.10;;;;;;5037483;28;20029;-73
2024/01/15 09:09:36;;;;;;;7.68;3.03;;;2.80;83.80;;;;;;5038909;28;20053;-73
2024/01/15 09:12:02;;;;;;;9.85;3.15;;;2.90;83.40;;;;;;5034791;28;20067;-74
2024/01/15 09:14:29;;;;;;;8.20;2.80;;;3.00;82.90;;;;;;5022435;28;20119;-73
2024/01/15 09:16:56;;;;;;;8.85;2.70;;;3.10;82.70;;;;;;5034380;28;20471;-74
2024/01/15 09:19:21;;;;;;;8.80;3.05;;;3.10;82.20;;;;;;5026943;28;20072;-73
2024/01/15 09:21:47;;;;;;;9.20;2.20;;;3.10;82.20;;;;;;5026440;28;20478;-73
2024/01/15 09:24:13;;;;;;;13.05;3.10;;;3.20;82.30;;;;;;5025615;28;20071;-73
2024/01/15 09:26:38;;;;;;;12.75;2.80;;;3.20;82.10;;;;;;5032382;28;20027;-73
2024/01/15 09:29:04;;;;;;;12.73;3.65;;;3.20;81.90;;;;;;5020291;28;20029;-73
2024/01/15 09:31:30;;;;;;;15.23;3.90;;;3.20;82.00;;;;;;5031419;28;20026;-73
2024/01/15 09:33:58;;;;;;;21.95;5.63;;;3.00;82.10;;;;;;5037791;28;20048;-74
2024/01/15 09:36:24;;;;;;;18.02;5.93;;;3.00;82.60;;;;;;5032466;28;20139;-73
2024/01/15 09:38:50;;;;;;;15.70;3.88;;;3.00;82.70;;;;;;5022593;28;20033;-73
2024/01/15 09:41:15;;;;;;;14.73;4.30;;;3.00;82.40;;;;;;5034712;28;20681;-73
2024/01/15 09:43:42;;;;;;;9.73;3.28;;;3.00;82.50;;;;;;5029421;28;20029;-73
2024/01/15 09:46:08;;;;;;;11.30;3.83;;;2.90;82.70;;;;;;5031858;28;20029;-73
2024/01/15 09:48:34;;;;;;;10.27;2.92;;;2.90;83.10;;;;;;5035378;28;20485;-73
2024/01/15 09:51:01;;;;;;;9.93;3.22;;;3.00;83.10;;;;;;5037482;28;20018;-73
2024/01/15 09:53:27;;;;;;;10.25;3.00;;;3.10;83.00;;;;;;5029761;28;20056;-73
2024/01/15 09:55:53;;;;;;;9.13;2.33;;;3.10;83.00;;;;;;5031476;28;20020;-73
2024/01/15 09:58:19;;;;;;;13.35;2.83;;;3.20;82.70;;;;;;5030842;28;20364;-72
2024/01/15 10:00:47;;;;;;;9.88;2.45;;;3.30;82.40;;;;;;5031546;28;20025;-74
2024/01/15 10:03:13;;;;;;;7.80;2.35;;;3.40;82.30;;;;;;5030226;28;20029;-73
2024/01/15 10:05:39;;;;;;;7.28;3.00;;;3.40;82.30;;;;;;5032375;28;20025;-73
2024/01/15 10:08:06;;;;;;;12.55;3.38;;;3.50;82.10;;;;;;5034896;28;20056;-73
2024/01/15 10:10:31;;;;;;;10.68;3.00;;;3.60;81.90;;;;;;5034821;28;20031;-73
2024/01/15 10:12:59;;;;;;;8.05;2.45;;;3.50;81.90;;;;;;5022778;28;20442;-73
2024/01/15 10:15:28;;;;;;;7.40;2.53;;;3.60;82.00;;;;;;5032006;28;20016;-72
2024/01/15 10:17:54;;;;;;;10.00;2.63;;;3.70;81.30;;;;;;5033620;28;20029;-73
2024/01/15 10:20:24;;;;;;;13.48;3.53;;;3.60;81.10;;;;;;5027637;28;20090;-74
2024/01/15 10:22:50;;;;;;;9.30;2.90;;;3.60;81.50;;;;;;5034307;28;20037;-73
2024/01/15 10:25:16;;;;;;;9.60;2.80;;;3.70;81.50;;;;;;5028359;28;20078;-72
2024/01/15 10:27:43;;;;;;;7.05;2.25;;;3.80;80.90;;;;;;5034901;28;20417;-73
2024/01/15 10:30:10;;;;;;;6.70;2.58;;;3.80;80.90;;;;;;5034166;28;20071;-73
2024/01/15 10:32:36;;;;;;;8.52;2.70;;;3.90;81.20;;;;;;5035224;28;20037;-73
2024/01/15 10:35:04;;;;;;;8.02;2.70;;;3.90;81.20;;;;;;5028485;28;20027;-73
2024/01/15 10:37:33;;;;;;;10.75;2.58;;;4.10;80.60;;;;;;5037922;28;20064;-73
2024/01/15 10:40:04;;;;;;;8.35;2.63;;;4.20;80.20;;;;;;5031598;28;20529;-74
2024/01/15 10:42:30;;;;;;;8.00;2.53;;;4.50;80.20;;;;;;5031128;28;20112;-73
2024/01/15 10:44:56;;;;;;;10.60;3.05;;;4.50;79.00;;;;;;5034391;28;20136;-73
2024/01/15 10:47:22;;;;;;;9.60;2.28;;;4.60;79.60;;;;;;5033250;28;20239;-73
2024/01/15 10:49:49;;;;;;;8.52;2.33;;;4.60;78.20;;;;;;5034425;28;20028;-72
2024/01/15 10:52:15;;;;;;;9.68;2.15;;;4.40;78.10;;;;;;5028018;28;20048;-72
2024/01/15 10:54:43;;;;;;;8.68;2.33;;;4.50;78.40;;;;;;5029771;28;20449;-72
2024/01/15 10:57:09;;;;;;;6.07;1.73;;;4.40;78.90;;;;;;5038538;28;20024;-73
2024/01/15 10:59:36;;;;;;;7.22;1.63;;;4.40;78.20;;;;;;5034153;28;20036;-73
2024/01/15 11:02:02;;;;;;;6.10;1.90;;;4.30;78.40;;;;;;5026259;28;20128;-73
2024/01/15 11:04:28;;;;;;;10.07;2.25;;;4.10;79.10;;;;;;5041952;28;20492;-74
2024/01/15 11:06:55;;;;;;;7.18;2.65;;;4.00;79.40;;;;;;5034215;28;20021;-72
2024/01/15 11:09:21;;;;;;;8.13;2.42;;;3.90;79.30;;;;;;5031399;28;20108;-72
2024/01/15 11:11:49;;;;;;;14.32;3.17;;;3.90;79.40;;;;;;5032606;28;20203;-74
2024/01/15 11:14:35;;;;;;;9.13;2.58;;;4.10;78.80;;;;;;5028994;28;20052;-73
2024/01/15 11:17:00;;;;;;;14.68;2.60;;;4.00;78.60;;;;;;5030342;28;20029;-73
2024/01/15 11:19:35;;;;;;;8.63;2.03;;;3.90;78.60;;;;;;5026097;28;20072;-73
2024/01/15 11:22:01;;;;;;;;;;;3.80;79.00;;;;;;5035990;28;20032;-74
2024/01/15 11:24:40;;;;;;;8.52;2.42;;;3.70;79.00;;;;;;5026097;28;20386;-72
2024/01/15 11:27:07;;;;;;;10.35;2.42;;;3.80;79.50;;;;;;5031161;28;20029;-73
2024/01/15 11:29:35;;;;;;;12.25;2.33;;;3.90;80.10;;;;;;5027220;28;20416;-72
2024/01/15 11:32:08;;;;;;;9.20;2.55;;;4.10;79.90;;;;;;5033982;28;20055;-74
2024/01/15 11:35:04;;;;;;;9.63;2.40;;;4.10;79.80;;;;;;5027650;28;20382;-73
2024/01/15 11:37:54;;;;;;;9.05;2.35;;;4.10;80.30;;;;;;5020231;28;20028;-73
2024/01/15 11:40:39;;;;;;;6.20;1.92;;;4.30;80.30;;;;;;5033132;28;20017;-73
2024/01/15 11:43:06;;;;;;;;;;;4.60;80.00;;;;;;5032066;28;20048;-72
2024/01/15 11:45:33;;;;;;;10.02;2.55;;;4.50;79.40;;;;;;5034356;28;19999;-74
2024/01/15 11:48:17;;;;;;;12.40;2.60;;;4.50;79.70;;;;;;5030395;28;20025;-73
2024/01/15 11:50:49;;;;;;;8.63;2.50;;;4.30;79.90;;;;;;5043236;28;20523;-72
2024/01/15 11:53:40;;;;;;;10.13;2.33;;;4.30;80.40;;;;;;5035310;28;20401;-72
2024/01/15 11:56:16;;;;;;;9.57;2.55;;;4.20;80.80;;;;;;5027381;28;20337;-73
2024/01/15 11:58:43;;;;;;;11.38;2.85;;;4.00;80.70;;;;;;5029556;28;20059;-73
2024/01/15 12:01:10;;;;;;;8.43;2.10;;;4.10;81.20;;;;;;5032684;28;20079;-72
2024/01/15 12:03:36;;;;;;;9.27;2.95;;;4.10;80.60;;;;;;5038549;28;20116;-73
2024/01/15 12:06:04;;;;;;;8.68;2.25;;;4.10;80.30;;;;;;5034212;28;20112;-73
2024/01/15 12:08:30;;;;;;;9.98;2.63;;;4.20;80.50;;;;;;5035560;28;20029;-73
2024/01/15 12:10:56;;;;;;;9.43;3.70;;;4.10;80.10;;;;;;5033444;28;20052;-72
2024/01/15 12:13:22;;;;;;;11.10;2.92;;;4.10;80.50;;;;;;5032751;28;20112;-72
2024/01/15 12:15:48;;;;;;;9.90;2.58;;;4.10;81.00;;;;;;5028813;28;20040;-72
2024/01/15 12:18:17;;;;;;;11.70;2.80;;;4.00;81.10;;;;;;5028983;28;20025;-72
2024/01/15 12:20:46;;;;;;;13.45;3.13;;;4.10;81.20;;;;;;5032266;28;20154;-73
2024/01/15 12:23:16;;;;;;;11.30;3.28;;;4.10;81.00;;;;;;5030164;28;20083;-72
2024/01/15 12:25:42;;;;;;;11.00;2.65;;;4.10;81.20;;;;;;5022595;28;20458;-73
2024/01/15 12:28:08;;;;;;;8.65;2.90;;;4.10;81.20;;;;;;5028222;28;20045;-73
2024/01/15 12:30:36;;;;;;;13.05;2.90;;;4.10;81.10;;;;;;5028361;28;20025;-73
2024/01/15 12:33:04;;;;;;;12.00;3.70;;;4.10;81.50;;;;;;5023177;28;20246;-72
2024/01/15 12:35:30;;;;;;;13.15;3.58;;;4.10;81.70;;;;;;5028574;28;20009;-73
2024/01/15 12:37:56;;;;;;;10.00;2.78;;;4.00;82.00;;;;;;5031421;28;20447;-73
2024/01/15 12:40:23;;;;;;;12.30;3.70;;;4.10;82.20;;;;;;5032189;28;20028;-74
2024/01/15 12:42:49;;;;;;;11.93;3.92;;;3.90;82.20;;;;;;5027935;28;20044;-73
2024/01/15 12:45:15;;;;;;;11.25;3.10;;;4.10;82.20;;;;;;5025865;28;20020;-73
2024/01/15 12:47:41;;;;;;;11.35;2.95;;;4.00;82.50;;;;;;5035537;28;20068;-73